TimeCST,TemperatureF,Dew PointF,Humidity,Sea Level PressureIn,VisibilityMPH,Wind Direction,Wind SpeedMPH,Gust SpeedMPH,PrecipitationIn,Events,Conditions,WindDirDegrees,DateUTC
12:53 AM,44.1,30.9,60,30.08,10.0,WNW,11.5,-,N/A,,Clear,300,2013-02-19 06:53:00
2:53 AM,39.0,24.1,55,30.13,10.0,NW,8.1,-,N/A,,Clear,320,2013-02-19 08:53:00
3:53 AM,37.9,21.9,53,30.14,10.0,NNW,9.2,-,N/A,,Clear,330,2013-02-19 09:53:00
4:53 AM,36.0,19.9,52,30.16,10.0,NW,5.8,-,N/A,,Clear,310,2013-02-19 10:53:00
5:53 AM,30.0,23.0,75,30.19,10.0,Calm,Calm,-,N/A,,Clear,0,2013-02-19 11:53:00
6:53 AM,28.0,23.0,81,30.22,10.0,Calm,Calm,-,N/A,,Clear,0,2013-02-19 12:53:00
7:53 AM,32.0,26.1,79,30.25,10.0,Calm,Calm,-,N/A,,Clear,0,2013-02-19 13:53:00
8:53 AM,39.9,24.1,53,30.27,10.0,WSW,3.5,-,N/A,,Clear,250,2013-02-19 14:53:00
9:53 AM,42.1,19.9,41,30.29,10.0,NW,5.8,-,N/A,,Clear,320,2013-02-19 15:53:00
10:53 AM,46.0,21.0,37,30.30,10.0,Variable,6.9,-,N/A,,Clear,0,2013-02-19 16:53:00
12:53 PM,48.9,21.9,35,30.29,10.0,West,9.2,-,N/A,,Clear,280,2013-02-19 18:53:00
1:53 PM,51.1,23.0,33,30.27,10.0,West,16.1,24.2,N/A,,Clear,280,2013-02-19 19:53:00
3:53 PM,53.1,19.0,26,30.24,10.0,WNW,8.1,17.3,N/A,,Clear,290,2013-02-19 21:53:00
4:53 PM,52.0,18.0,26,30.23,10.0,WNW,10.4,-,N/A,,Clear,300,2013-02-19 22:53:00
6:53 PM,37.9,26.1,62,30.25,10.0,Calm,Calm,-,N/A,,Clear,0,2013-02-20 00:53:00
7:53 PM,36.0,26.1,67,30.25,10.0,Calm,Calm,-,N/A,,Clear,0,2013-02-20 01:53:00
8:53 PM,33.1,26.1,75,30.26,10.0,Calm,Calm,-,N/A,,Clear,0,2013-02-20 02:53:00
9:53 PM,30.9,24.1,76,30.28,10.0,Calm,Calm,-,N/A,,Clear,0,2013-02-20 03:53:00
10:53 PM,30.9,26.1,82,30.27,10.0,Calm,Calm,-,N/A,,Clear,0,2013-02-20 04:53:00
11:53 PM,30.9,25.0,79,30.28,10.0,Calm,Calm,-,N/A,,Clear,0,2013-02-20 05:53:00